EGMC/SEN METAR and TAF weather

Enter ICAO airport designator
Station Type Date Time Source
EGMC METAR 2022/06/28 09:50 UTC NOAA

EGMC 280950Z 18014KT 9999 FEW024 SCT038 19/09 Q1018


Station Type Date Time Source
EGMC Decoded METAR 2022/06/28 09:50 UTC NOAA

Southend-On-Sea , United Kingdom (EGMC) 51-34N 000-42E
Jun 28, 2022 - 05:50 AM EDT / 2022.06.28 0950 UTC
Wind: from the S (180 degrees) at 16 MPH (14 KT):0
Visibility: greater than 7 mile(s):0
Sky conditions: partly cloudy
Temperature: 66 F (19 C)
Dew Point: 48 F (9 C)
Relative Humidity: 52%
Pressure (altimeter): 30.06 in. Hg (1018 hPa)
ob: EGMC 280950Z 18014KT 9999 FEW024 SCT038 19/09 Q1018
cycle: 10

Station Type Date Time Source
EGMC TAF 2016/04/18 18:00 UTC NOAA

TAF EGMC 181658Z 1818/1903 28008KT 9999 BKN045

Example: see airport list